createdAt,value
2017-11-15T00:02:24.182Z,80.60
2017-11-15T00:04:51.698Z,80.60
2017-11-15T00:07:19.181Z,80.50
2017-11-15T00:09:46.715Z,80.60
2017-11-15T00:12:14.184Z,80.70
2017-11-15T00:14:41.664Z,80.80
2017-11-15T00:17:09.161Z,81.00
2017-11-15T00:19:37.404Z,80.80
2017-11-15T00:22:04.904Z,80.90
2017-11-15T00:24:33.133Z,80.80
2017-11-15T00:27:00.648Z,80.70
2017-11-15T00:29:28.124Z,80.80
2017-11-15T00:31:55.646Z,80.70
2017-11-15T00:34:23.880Z,80.70
2017-11-15T00:36:51.361Z,80.80
2017-11-15T00:39:18.865Z,80.70
2017-11-15T00:41:46.341Z,80.50
2017-11-15T00:44:13.852Z,80.50
2017-11-15T00:46:42.085Z,80.60
2017-11-15T00:49:09.564Z,80.60
2017-11-15T00:51:37.093Z,80.40
2017-11-15T00:54:04.587Z,80.40
2017-11-15T00:56:32.096Z,80.60
2017-11-15T00:58:59.610Z,80.30
2017-11-15T01:01:27.080Z,80.50
2017-11-15T01:03:55.312Z,80.70
2017-11-15T01:06:22.807Z,80.70
2017-11-15T01:08:50.303Z,80.60
2017-11-15T01:11:17.834Z,80.80
2017-11-15T01:13:45.312Z,80.50
2017-11-15T01:16:12.835Z,80.60
2017-11-15T01:18:40.365Z,80.70
2017-11-15T01:21:07.893Z,80.70
2017-11-15T01:23:35.388Z,80.60
2017-11-15T01:26:02.849Z,80.30
2017-11-15T01:28:30.337Z,80.70
2017-11-15T01:30:57.821Z,80.80
2017-11-15T01:33:25.333Z,80.60
2017-11-15T01:35:52.820Z,80.70
2017-11-15T01:38:20.292Z,80.70
2017-11-15T01:40:48.563Z,80.60
2017-11-15T01:43:16.832Z,80.50
2017-11-15T01:45:44.344Z,80.50
2017-11-15T01:48:11.855Z,80.20
2017-11-15T01:50:40.115Z,79.90
2017-11-15T01:53:07.647Z,79.90
2017-11-15T01:55:35.165Z,80.20
2017-11-15T01:58:03.434Z,80.40
2017-11-15T02:00:43.638Z,80.70
2017-11-15T02:03:11.118Z,80.70
2017-11-15T02:05:38.653Z,80.00
2017-11-15T02:08:06.120Z,80.20
2017-11-15T02:10:33.653Z,79.80
2017-11-15T02:13:01.148Z,80.20
2017-11-15T02:15:28.653Z,80.60
2017-11-15T02:17:56.915Z,80.70
2017-11-15T02:20:25.156Z,80.40
2017-11-15T02:22:52.713Z,80.40
2017-11-15T02:25:20.181Z,80.60
2017-11-15T02:27:47.673Z,80.50
2017-11-15T02:30:15.934Z,80.20
2017-11-15T02:32:43.486Z,80.20
2017-11-15T02:35:11.010Z,80.30
2017-11-15T02:37:38.497Z,80.00
2017-11-15T02:40:05.965Z,80.00
2017-11-15T02:42:33.495Z,80.20
2017-11-15T02:45:00.976Z,80.10
2017-11-15T02:47:28.497Z,79.80
2017-11-15T02:49:55.968Z,80.00
2017-11-15T02:52:23.496Z,80.00
2017-11-15T02:54:51.746Z,80.10
2017-11-15T02:57:19.283Z,80.20
2017-11-15T02:59:46.775Z,79.90
2017-11-15T03:02:15.032Z,80.10
2017-11-15T03:04:42.559Z,80.10
2017-11-15T03:07:10.034Z,79.70
2017-11-15T03:09:37.536Z,79.70
2017-11-15T03:12:05.782Z,79.90
2017-11-15T03:14:33.252Z,79.90
2017-11-15T03:17:01.523Z,79.80
2017-11-15T03:19:28.988Z,79.80
2017-11-15T03:21:56.515Z,79.90
2017-11-15T03:24:23.992Z,79.70
2017-11-15T03:26:51.473Z,79.80
2017-11-15T03:29:19.760Z,79.90
2017-11-15T03:31:48.013Z,80.10
2017-11-15T03:34:15.478Z,80.10
2017-11-15T03:36:42.989Z,79.70
2017-11-15T03:39:10.499Z,79.40
2017-11-15T03:41:38.740Z,79.60
2017-11-15T03:44:06.250Z,79.60
2017-11-15T03:46:34.483Z,79.50
2017-11-15T03:49:01.996Z,79.60
2017-11-15T03:51:29.472Z,79.80
2017-11-15T03:53:56.938Z,79.60
2017-11-15T03:56:24.459Z,79.80
2017-11-15T03:58:52.735Z,79.60
2017-11-15T04:01:20.964Z,79.80
2017-11-15T04:03:48.443Z,79.80
2017-11-15T04:06:15.956Z,79.60
2017-11-15T04:08:43.434Z,79.30
2017-11-15T04:11:10.957Z,79.90
2017-11-15T04:13:39.187Z,80.00
2017-11-15T04:16:07.494Z,79.80
2017-11-15T04:18:35.719Z,80.00
2017-11-15T04:21:03.744Z,80.00
2017-11-15T04:23:32.004Z,79.80
2017-11-15T04:25:59.475Z,79.80
2017-11-15T04:28:27.763Z,79.50
2017-11-15T04:30:55.259Z,79.50
2017-11-15T04:33:22.721Z,79.70
2017-11-15T04:35:50.236Z,79.70
2017-11-15T04:38:18.473Z,79.50
2017-11-15T04:40:45.980Z,79.50
2017-11-15T04:43:13.454Z,79.70
2017-11-15T04:45:40.969Z,79.70
2017-11-15T04:48:08.440Z,79.90
2017-11-15T04:50:36.677Z,79.90
2017-11-15T04:53:04.180Z,79.90
2017-11-15T04:55:32.535Z,79.90
2017-11-15T04:58:00.044Z,80.00
2017-11-15T05:00:27.543Z,80.00
2017-11-15T05:02:55.080Z,80.10
2017-11-15T05:05:22.557Z,80.00
2017-11-15T05:07:50.032Z,80.00
2017-11-15T05:10:17.522Z,80.00
2017-11-15T05:12:45.025Z,80.10
2017-11-15T05:15:12.535Z,80.20
2017-11-15T05:17:40.806Z,80.20
2017-11-15T05:20:09.040Z,80.00
2017-11-15T05:22:36.545Z,80.00
2017-11-15T05:25:04.792Z,80.10
2017-11-15T05:27:32.308Z,80.20
2017-11-15T05:29:59.791Z,80.30
2017-11-15T05:32:27.318Z,80.20
2017-11-15T05:34:54.814Z,80.50
2017-11-15T05:37:22.296Z,80.10
2017-11-15T05:39:49.793Z,80.40
2017-11-15T05:42:17.289Z,80.40
2017-11-15T05:44:44.800Z,80.50
2017-11-15T05:47:12.280Z,80.30
2017-11-15T05:49:39.780Z,80.40
2017-11-15T05:52:07.257Z,80.50
2017-11-15T05:54:35.514Z,80.50
2017-11-15T05:57:03.017Z,80.50
2017-11-15T05:59:30.493Z,80.30
2017-11-15T06:01:57.991Z,80.40
2017-11-15T06:04:25.481Z,80.40
2017-11-15T06:06:53.716Z,80.20
2017-11-15T06:09:21.247Z,80.20
2017-11-15T06:11:48.807Z,80.40
2017-11-15T06:14:16.289Z,80.20
2017-11-15T06:16:43.841Z,80.60
2017-11-15T06:19:11.299Z,80.50
2017-11-15T06:21:38.860Z,80.30
2017-11-15T06:24:06.383Z,80.60
2017-11-15T06:26:33.760Z,80.30
2017-11-15T06:29:01.304Z,80.70
2017-11-15T06:31:28.838Z,80.60
2017-11-15T06:33:57.277Z,80.50
2017-11-15T06:36:24.692Z,80.50
2017-11-15T06:38:52.952Z,80.60
2017-11-15T06:41:21.196Z,80.70
2017-11-15T06:43:48.701Z,80.70
2017-11-15T06:46:16.937Z,80.50
2017-11-15T06:48:44.431Z,80.50
2017-11-15T06:51:12.700Z,80.40
2017-11-15T06:53:40.938Z,80.50
2017-11-15T06:56:08.465Z,80.50
2017-11-15T06:58:35.933Z,80.80
2017-11-15T07:01:03.411Z,80.50
2017-11-15T07:03:30.917Z,80.90
2017-11-15T07:05:59.201Z,80.60
2017-11-15T07:08:27.467Z,80.60
2017-11-15T07:10:55.741Z,80.80
2017-11-15T07:13:24.000Z,80.80
2017-11-15T07:15:51.486Z,80.90
2017-11-15T07:18:19.761Z,80.80
2017-11-15T07:20:47.281Z,80.80
2017-11-15T07:23:14.799Z,80.90
2017-11-15T07:25:42.292Z,80.70
2017-11-15T07:28:09.761Z,81.00
2017-11-15T07:30:37.342Z,81.00
2017-11-15T07:33:04.813Z,80.70
2017-11-15T07:35:33.091Z,80.10
2017-11-15T07:38:01.341Z,80.40
2017-11-15T07:40:28.832Z,80.40
2017-11-15T07:42:57.116Z,80.20
2017-11-15T07:45:24.585Z,80.20
2017-11-15T07:47:52.089Z,80.10
2017-11-15T07:50:20.574Z,80.50
2017-11-15T07:52:48.069Z,80.80
2017-11-15T07:55:15.578Z,80.60
2017-11-15T07:57:43.072Z,80.40
2017-11-15T08:00:11.328Z,80.60
2017-11-15T08:02:38.808Z,80.60
2017-11-15T08:05:07.076Z,80.80
2017-11-15T08:07:34.551Z,80.80
2017-11-15T08:10:03.519Z,80.60
2017-11-15T08:12:31.011Z,80.60
2017-11-15T08:14:58.520Z,80.90
2017-11-15T08:17:26.000Z,80.80
2017-11-15T08:19:53.521Z,80.20
2017-11-15T08:22:21.023Z,80.30
2017-11-15T08:24:48.518Z,80.40
2017-11-15T08:27:16.044Z,80.80
2017-11-15T08:29:43.565Z,80.60
2017-11-15T08:32:11.033Z,80.60
2017-11-15T08:34:38.554Z,80.20
2017-11-15T08:37:06.021Z,80.40
2017-11-15T08:39:33.561Z,80.60
2017-11-15T08:42:01.832Z,80.90
2017-11-15T08:44:30.124Z,80.20
2017-11-15T08:46:57.605Z,80.20
2017-11-15T08:49:25.125Z,80.60
2017-11-15T08:51:53.419Z,80.20
2017-11-15T08:54:20.909Z,80.20
2017-11-15T08:56:48.416Z,80.60
2017-11-15T08:59:16.652Z,80.40
2017-11-15T09:01:44.192Z,80.40
2017-11-15T09:04:11.685Z,80.80
2017-11-15T09:06:40.108Z,79.80
2017-11-15T09:09:07.639Z,80.10
2017-11-15T09:11:35.165Z,79.60
2017-11-15T09:14:02.635Z,79.40
2017-11-15T09:16:30.133Z,79.20
2017-11-15T09:18:58.389Z,79.70
2017-11-15T09:21:25.864Z,79.70
2017-11-15T09:23:54.140Z,80.00
2017-11-15T09:26:22.396Z,80.00
2017-11-15T09:28:49.893Z,80.00
2017-11-15T09:31:17.394Z,80.50
2017-11-15T09:33:44.901Z,80.90
2017-11-15T09:36:13.145Z,80.60
2017-11-15T09:38:40.684Z,80.60
2017-11-15T09:41:08.164Z,80.80
2017-11-15T09:43:35.655Z,81.20
2017-11-15T09:46:03.932Z,79.90
2017-11-15T09:48:32.217Z,80.40
2017-11-15T09:51:00.489Z,79.70
2017-11-15T09:53:28.725Z,80.80
2017-11-15T09:55:56.301Z,80.80
2017-11-15T09:58:23.786Z,80.20
2017-11-15T10:00:51.250Z,80.10
2017-11-15T10:03:18.777Z,80.40
2017-11-15T10:05:46.259Z,81.20
2017-11-15T10:08:14.513Z,80.90
2017-11-15T10:10:42.014Z,80.90
2017-11-15T10:13:09.476Z,80.50
2017-11-15T10:15:36.997Z,79.80
2017-11-15T10:18:05.254Z,79.40
2017-11-15T10:20:32.722Z,79.40
2017-11-15T10:23:00.235Z,80.80
2017-11-15T10:25:27.716Z,81.70
2017-11-15T10:27:55.229Z,80.30
2017-11-15T10:30:22.774Z,80.70
2017-11-15T10:32:51.009Z,80.20
2017-11-15T10:35:19.255Z,80.10
2017-11-15T10:37:46.782Z,80.10
2017-11-15T10:40:15.013Z,80.30
2017-11-15T10:42:42.497Z,80.40
2017-11-15T10:45:09.990Z,79.70
2017-11-15T10:47:37.483Z,80.80
2017-11-15T10:50:05.004Z,81.00
2017-11-15T10:52:33.249Z,79.70
2017-11-15T10:55:00.732Z,79.70
2017-11-15T10:57:29.052Z,79.60
2017-11-15T10:59:56.545Z,79.60
2017-11-15T11:02:24.071Z,79.20
2017-11-15T11:04:51.556Z,79.40
2017-11-15T11:07:19.020Z,79.10
2017-11-15T11:09:46.519Z,77.80
2017-11-15T11:12:14.009Z,78.60
2017-11-15T11:14:41.504Z,78.40
2017-11-15T11:17:08.996Z,79.00
2017-11-15T11:19:38.256Z,78.50
2017-11-15T11:22:05.832Z,77.50
2017-11-15T11:24:34.096Z,77.70
2017-11-15T11:27:01.614Z,77.60
2017-11-15T11:29:29.127Z,77.20
2017-11-15T11:32:02.229Z,78.20
2017-11-15T11:34:31.560Z,78.30
2017-11-15T11:36:59.895Z,78.30
2017-11-15T11:39:27.401Z,79.00
2017-11-15T11:41:54.881Z,78.00
2017-11-15T11:44:22.362Z,77.40
2017-11-15T11:46:49.884Z,77.80
2017-11-15T11:49:17.355Z,77.90
2017-11-15T11:51:44.858Z,77.60
2017-11-15T11:54:13.105Z,77.20
2017-11-15T11:56:40.583Z,77.20
2017-11-15T11:59:08.856Z,77.60
2017-11-15T12:01:36.341Z,77.60
2017-11-15T12:04:03.849Z,76.80
2017-11-15T12:06:31.328Z,77.30
2017-11-15T12:08:58.803Z,77.90
2017-11-15T12:11:27.086Z,77.00
2017-11-15T12:13:55.341Z,78.10
2017-11-15T12:16:22.853Z,78.10
2017-11-15T12:18:50.322Z,76.70
2017-11-15T12:21:17.831Z,76.60
2017-11-15T12:23:46.116Z,75.90
2017-11-15T12:26:14.385Z,76.60
2017-11-15T12:28:42.672Z,76.10
2017-11-15T12:31:10.913Z,76.20
2017-11-15T12:33:38.392Z,76.30
2017-11-15T12:36:06.758Z,76.40
2017-11-15T12:38:34.262Z,76.40
2017-11-15T12:41:01.737Z,76.30
2017-11-15T12:43:29.246Z,76.40
2017-11-15T12:45:57.508Z,76.90
2017-11-15T12:48:25.009Z,76.90
2017-11-15T12:50:53.267Z,76.10
2017-11-15T12:53:21.537Z,76.20
2017-11-15T12:55:49.793Z,76.50
2017-11-15T12:58:17.297Z,76.40
2017-11-15T13:00:44.805Z,75.60
2017-11-15T13:03:12.277Z,75.60
2017-11-15T13:05:39.774Z,75.60
2017-11-15T13:08:07.304Z,75.20
2017-11-15T13:10:34.768Z,75.30
2017-11-15T13:13:03.004Z,75.20
2017-11-15T13:15:30.511Z,75.20
2017-11-15T13:17:58.768Z,75.50
2017-11-15T13:20:26.273Z,75.50
2017-11-15T13:22:53.773Z,75.80
2017-11-15T13:25:21.293Z,75.40
2017-11-15T13:27:48.764Z,75.40
2017-11-15T13:30:16.237Z,75.40
2017-11-15T13:32:43.760Z,75.70
2017-11-15T13:35:11.256Z,76.20
2017-11-15T13:37:39.505Z,75.50
2017-11-15T13:40:07.003Z,75.50
2017-11-15T13:42:34.495Z,75.20
2017-11-15T13:45:02.778Z,75.80
2017-11-15T13:47:30.252Z,75.80
2017-11-15T13:49:57.738Z,75.20
2017-11-15T13:52:25.233Z,76.10
2017-11-15T13:54:52.756Z,76.00
2017-11-15T13:57:20.271Z,76.20
2017-11-15T13:59:48.508Z,75.40
2017-11-15T14:02:16.051Z,75.50
2017-11-15T14:04:43.547Z,75.70
2017-11-15T14:07:11.822Z,76.50
2017-11-15T14:09:40.085Z,76.70
2017-11-15T14:12:07.562Z,76.70
2017-11-15T14:14:35.837Z,77.10
2017-11-15T14:17:04.080Z,77.10
2017-11-15T14:19:31.585Z,77.10
2017-11-15T14:21:59.806Z,76.80
2017-11-15T14:24:27.290Z,76.80
2017-11-15T14:26:54.817Z,76.40
2017-11-15T14:29:22.324Z,76.90
2017-11-15T14:31:49.848Z,76.90
2017-11-15T14:34:17.330Z,75.90
2017-11-15T14:36:44.816Z,76.50
2017-11-15T14:39:13.114Z,76.30
2017-11-15T14:41:40.605Z,76.30
2017-11-15T14:44:08.117Z,76.60
2017-11-15T14:46:36.380Z,77.30
2017-11-15T14:49:04.670Z,77.40
2017-11-15T14:51:32.145Z,77.40
2017-11-15T14:53:59.627Z,77.40
2017-11-15T14:56:27.133Z,77.90
2017-11-15T14:58:55.393Z,77.60
2017-11-15T15:01:22.901Z,77.60
2017-11-15T15:03:50.388Z,77.80
2017-11-15T15:06:17.890Z,77.80
2017-11-15T15:08:46.146Z,77.60
2017-11-15T15:11:13.618Z,77.60
2017-11-15T15:13:41.894Z,77.60
2017-11-15T15:16:10.137Z,77.90
2017-11-15T15:18:37.636Z,77.90
2017-11-15T15:21:05.893Z,77.90
2017-11-15T15:23:33.376Z,77.90
2017-11-15T15:26:01.656Z,78.30
2017-11-15T15:28:29.905Z,78.40
2017-11-15T15:30:57.440Z,78.30
2017-11-15T15:33:24.936Z,78.70
2017-11-15T15:35:53.228Z,79.00
2017-11-15T15:38:21.489Z,78.90
2017-11-15T15:40:49.735Z,79.30
2017-11-15T15:43:17.261Z,79.30
2017-11-15T15:45:44.725Z,79.40
2017-11-15T15:48:12.221Z,79.80
2017-11-15T15:50:39.713Z,79.60
2017-11-15T15:53:07.977Z,79.80
2017-11-15T15:55:36.249Z,79.90
2017-11-15T15:58:03.712Z,79.90
2017-11-15T16:00:31.988Z,79.90
2017-11-15T16:03:00.236Z,79.90
2017-11-15T16:05:27.716Z,79.90
2017-11-15T16:07:55.221Z,80.00
2017-11-15T16:10:22.692Z,80.30
2017-11-15T16:12:50.234Z,80.00
2017-11-15T16:15:17.763Z,79.90
2017-11-15T16:17:46.006Z,79.60
2017-11-15T16:20:13.513Z,79.60
2017-11-15T16:22:41.748Z,79.80
2017-11-15T16:25:09.235Z,79.80
2017-11-15T16:27:37.495Z,80.10
2017-11-15T16:30:06.497Z,80.00
2017-11-15T16:32:34.736Z,80.00
2017-11-15T16:35:02.233Z,80.00
2017-11-15T16:37:29.753Z,80.00
2017-11-15T16:39:57.213Z,79.50
2017-11-15T16:42:24.728Z,79.80
2017-11-15T16:44:52.985Z,80.50
2017-11-15T16:47:21.480Z,80.40
2017-11-15T16:49:48.999Z,80.40
2017-11-15T16:52:16.485Z,80.80
2017-11-15T16:54:44.761Z,80.60
2017-11-15T16:57:12.274Z,80.60
2017-11-15T16:59:39.734Z,80.40
2017-11-15T17:02:07.253Z,80.20
2017-11-15T17:04:35.498Z,80.20
2017-11-15T17:07:03.015Z,80.20
2017-11-15T17:09:30.499Z,80.40
2017-11-15T17:11:58.092Z,80.50
2017-11-15T17:14:26.386Z,80.80
2017-11-15T17:16:54.620Z,80.80
2017-11-15T17:19:23.012Z,80.80
2017-11-15T17:21:51.249Z,80.60
2017-11-15T17:24:18.732Z,80.60
2017-11-15T17:26:46.212Z,80.80
2017-11-15T17:29:13.693Z,81.00
2017-11-15T17:31:41.975Z,80.80
2017-11-15T17:34:10.828Z,81.00
2017-11-15T17:36:38.343Z,81.00
2017-11-15T17:39:05.837Z,80.90
2017-11-15T17:41:33.334Z,80.80
2017-11-15T17:44:01.617Z,80.90
2017-11-15T17:46:29.866Z,81.20
2017-11-15T17:48:57.361Z,81.20
2017-11-15T17:51:24.929Z,81.30
2017-11-15T17:53:52.431Z,81.30
2017-11-15T17:56:19.982Z,81.00
2017-11-15T17:58:47.459Z,81.30
2017-11-15T18:01:14.962Z,81.00
2017-11-15T18:03:42.452Z,80.80
2017-11-15T18:06:10.025Z,81.20
2017-11-15T18:08:37.549Z,81.10
2017-11-15T18:11:05.807Z,80.50
2017-11-15T18:13:33.482Z,80.50
2017-11-15T18:16:00.962Z,80.70
2017-11-15T18:18:28.468Z,80.90
2017-11-15T18:20:56.722Z,81.00
2017-11-15T18:23:24.320Z,81.10
2017-11-15T18:25:51.812Z,80.80
2017-11-15T18:28:19.297Z,81.20
2017-11-15T18:30:46.796Z,81.20
2017-11-15T18:33:15.082Z,80.90
2017-11-15T18:35:42.566Z,81.00
2017-11-15T18:38:10.073Z,80.90
2017-11-15T18:40:37.564Z,80.90
2017-11-15T18:43:05.091Z,81.00
2017-11-15T18:45:32.591Z,81.10
2017-11-15T18:48:00.104Z,80.50
2017-11-15T18:50:27.592Z,80.70
2017-11-15T18:52:55.870Z,80.80
2017-11-15T18:55:23.340Z,80.80
2017-11-15T18:57:50.855Z,80.60
2017-11-15T19:00:19.144Z,81.00
2017-11-15T19:02:47.384Z,81.20
2017-11-15T19:05:14.916Z,81.20
2017-11-15T19:07:42.378Z,81.10
2017-11-15T19:10:09.876Z,80.90
2017-11-15T19:12:38.905Z,81.00
2017-11-15T19:15:07.137Z,80.90
2017-11-15T19:17:34.635Z,80.90
2017-11-15T19:20:02.991Z,81.30
2017-11-15T19:22:31.240Z,81.50
2017-11-15T19:24:58.828Z,81.50
2017-11-15T19:27:26.345Z,81.20
2017-11-15T19:29:53.883Z,81.00
2017-11-15T19:32:21.361Z,81.30
2017-11-15T19:34:48.884Z,81.00
2017-11-15T19:37:17.217Z,81.00
2017-11-15T19:39:45.071Z,81.00
2017-11-15T19:42:12.929Z,81.10
2017-11-15T19:44:40.455Z,80.60
2017-11-15T19:47:08.697Z,81.00
2017-11-15T19:49:36.207Z,81.00
2017-11-15T19:52:03.693Z,81.00
2017-11-15T19:54:31.292Z,81.10
2017-11-15T19:56:59.634Z,81.10
2017-11-15T19:59:27.291Z,81.10
2017-11-15T20:01:55.179Z,81.40
2017-11-15T20:04:22.707Z,81.30
2017-11-15T20:06:50.321Z,81.40
2017-11-15T20:09:17.865Z,81.60
2017-11-15T20:11:45.908Z,81.60
2017-11-15T20:14:13.513Z,81.80
2017-11-15T20:16:41.800Z,81.60
2017-11-15T20:19:09.412Z,81.60
2017-11-15T20:21:37.032Z,81.60
2017-11-15T20:24:04.612Z,81.60
2017-11-15T20:26:32.152Z,81.60
2017-11-15T20:29:00.882Z,81.70
2017-11-15T20:44:33.468Z,81.70
2017-11-15T20:47:01.175Z,81.90
2017-11-15T20:49:29.425Z,81.80
2017-11-15T20:51:57.016Z,81.80
2017-11-15T20:54:25.634Z,82.00
2017-11-15T20:56:53.171Z,82.00
2017-11-15T20:59:20.670Z,82.00
2017-11-15T21:01:48.487Z,81.80
2017-11-15T21:04:16.716Z,81.80
2017-11-15T21:06:44.244Z,81.80
2017-11-15T21:09:11.761Z,81.80
2017-11-15T21:11:39.260Z,81.90
2017-11-15T21:14:06.784Z,82.00
2017-11-15T21:16:34.312Z,82.00
2017-11-15T21:19:03.239Z,81.90
2017-11-15T21:21:30.752Z,81.90
2017-11-15T21:23:58.267Z,81.90
2017-11-15T21:26:26.596Z,81.90
2017-11-15T21:28:54.179Z,81.90
2017-11-15T21:31:21.724Z,81.90
2017-11-15T21:33:49.200Z,81.90
2017-11-15T21:36:16.774Z,81.80
2017-11-15T21:38:45.053Z,81.50
2017-11-15T21:41:15.333Z,81.50
2017-11-15T21:43:43.994Z,81.70
2017-11-15T21:46:11.494Z,81.80
2017-11-15T21:48:39.707Z,81.60
2017-11-15T21:51:07.255Z,81.60
2017-11-15T21:53:35.548Z,81.80
2017-11-15T21:56:03.829Z,81.70
2017-11-15T21:58:32.116Z,81.80
2017-11-15T22:00:59.634Z,81.80
2017-11-15T22:03:27.102Z,81.70
2017-11-15T22:05:54.599Z,81.90
2017-11-15T22:08:22.151Z,81.80
2017-11-15T22:10:49.625Z,81.50
2017-11-15T22:13:17.114Z,81.80
2017-11-15T22:15:44.624Z,81.80
2017-11-15T22:18:12.151Z,81.90
2017-11-15T22:20:39.661Z,81.90
2017-11-15T22:23:07.133Z,82.00
2017-11-15T22:25:34.620Z,81.90
2017-11-15T22:28:02.154Z,81.90
2017-11-15T22:30:29.666Z,82.10
2017-11-15T22:32:57.940Z,81.90
2017-11-15T22:35:26.203Z,82.00
2017-11-15T22:37:53.696Z,82.00
2017-11-15T22:40:21.179Z,81.80
2017-11-15T22:42:48.688Z,81.60
2017-11-15T22:45:16.938Z,81.70
2017-11-15T22:47:44.415Z,81.80
2017-11-15T22:50:11.966Z,81.70
2017-11-15T22:52:39.428Z,81.90
2017-11-15T22:55:08.413Z,81.70
2017-11-15T22:57:35.915Z,81.80
2017-11-15T23:00:03.400Z,81.70
2017-11-15T23:02:30.926Z,81.70
2017-11-15T23:04:59.192Z,81.80
2017-11-15T23:07:27.437Z,81.80
2017-11-15T23:09:54.937Z,81.80
2017-11-15T23:12:23.213Z,81.80
2017-11-15T23:14:51.484Z,81.80
2017-11-15T23:17:19.740Z,81.70
2017-11-15T23:19:47.255Z,81.70
2017-11-15T23:22:14.723Z,81.70
2017-11-15T23:24:42.212Z,81.60
2017-11-15T23:27:09.703Z,81.50
2017-11-15T23:29:37.185Z,81.40
2017-11-15T23:32:04.697Z,81.40
2017-11-15T23:34:32.230Z,81.50
2017-11-15T23:36:59.725Z,81.60
2017-11-15T23:39:28.004Z,81.20
2017-11-15T23:41:56.234Z,80.90
2017-11-15T23:44:23.703Z,81.00
2017-11-15T23:46:51.215Z,81.00
2017-11-15T23:49:18.728Z,81.30
2017-11-15T23:51:46.199Z,81.20
2017-11-15T23:54:13.669Z,81.30
2017-11-15T23:56:41.933Z,81.30
2017-11-15T23:59:09.422Z,81.40
